Altamont, Tennessee
Current Conditions -  °F | °C
As of 3:15 PM on Monday 24 Nov 2014 (Local Time) from KRNC Reporting Station
Clear Clear  
Wind Chill: 59°   Ceiling: Unl
Heat Index: 59°   Visibility: 10mi
Dew Point: 37°   Wind: 8mph
Humidity: 45%   Direction: 250°WSW
Pressure: 29.83"   Gusts: NA
Location:  35.43°N, 85.72°W
Report Text: KRNC 242115Z AUTO 25007KT 10SM CLR 15/03 A2983 RMK
Loading
Personal Weather Stations






























Interactive Weather Map New forecast layout! Learn more

10-Day Weather Forecast

Advertisements
Track Severe Weather on mobile